»·PEaware :: N973SE KSNA-KPSP

N973SE :: KSNA-KPSP

FLIGHT INFORMATION

Flight Status: Arrived
Operator: Privately registered:
United States
More flights under this callsign
Pilot: Stig E. (4778)
Aircraft: CESSNA 172 SKYHAWK
(C172)
More flights by this aircraft type
Origin: KSNA John Wayne-Orange Co
United States
Destination: KPSP Palm Springs Intl
United States
More flights between these airports :: More routes between these airports
Route: WHETO V137 PSP JISOP
File this flight plan on PilotEdge
Remarks:
Altitude:
(Current/Filed)
9,500ft
Speed:
(Current/Filed)
120kts
Departed: 30-Apr-19 11:09 PM
Arrived: 01-May-19 12:00 AM
Distance/Time
Traveled:
68nm/0:50
Distance/Time
To Go:
Arrived

Flight Plot

Page will automatically refresh every two minutes.


Map Options




Map Legend


Flown Route
Filed Route
Departure Airport
Arrival Airport
Navaid (VOR, NDB)
Fix

Horizontal Profiles

Position Reports

Time Latitude Longitude Heading Altitude Ground
Speed
30-Apr-19 23:01 33.676080 -117.870909 219 60ft 0kts
30-Apr-19 23:02 33.676080 -117.870909 219 60ft 0kts
30-Apr-19 23:03 33.676080 -117.870909 219 60ft 0kts
30-Apr-19 23:04 33.676080 -117.870909 219 60ft 0kts
30-Apr-19 23:05 33.676080 -117.870909 219 60ft 0kts
30-Apr-19 23:06 33.674382 -117.871150 210 60ft 17kts
30-Apr-19 23:07 33.669632 -117.874147 209 60ft 19kts
30-Apr-19 23:08 33.675187 -117.869250 25 265ft 77kts
30-Apr-19 23:09 33.691314 -117.854520 85 1278ft 81kts
30-Apr-19 23:10 33.687986 -117.827696 86 2260ft 82kts
30-Apr-19 23:11 33.691787 -117.800495 73 3181ft 84kts
30-Apr-19 23:12 33.697690 -117.773194 70 4140ft 85kts
30-Apr-19 23:13 33.704081 -117.745136 68 5048ft 88kts
30-Apr-19 23:14 33.710756 -117.716013 67 5908ft 92kts
30-Apr-19 23:15 33.717696 -117.685717 67 6719ft 96kts
30-Apr-19 23:16 33.724934 -117.654085 66 7487ft 99kts
30-Apr-19 23:17 33.732444 -117.621221 66 8222ft 103kts
30-Apr-19 23:18 33.740187 -117.587282 66 8921ft 106kts
30-Apr-19 23:19 33.748136 -117.552490 66 9499ft 117kts
30-Apr-19 23:20 33.758113 -117.508551 68 9497ft 142kts
30-Apr-19 23:21 33.768316 -117.463530 67 9496ft 137kts
30-Apr-19 23:22 33.778357 -117.419267 67 9494ft 136kts
30-Apr-19 23:23 33.788305 -117.375326 67 9493ft 135kts
30-Apr-19 23:24 33.798164 -117.331708 67 9488ft 134kts
30-Apr-19 23:25 33.807959 -117.288339 67 9488ft 133kts
30-Apr-19 23:26 33.817757 -117.244887 67 9488ft 133kts
30-Apr-19 23:27 33.827494 -117.201580 67 9489ft 133kts
30-Apr-19 23:28 33.837260 -117.158056 67 9489ft 133kts
30-Apr-19 23:29 33.846983 -117.114647 67 9489ft 133kts
30-Apr-19 23:30 33.856638 -117.071407 68 9479ft 133kts
30-Apr-19 23:31 33.866241 -117.028327 69 9471ft 132kts
30-Apr-19 23:32 33.875687 -116.985927 69 9495ft 129kts
30-Apr-19 23:33 33.885052 -116.943823 70 9494ft 129kts
30-Apr-19 23:34 33.894326 -116.902048 71 9496ft 127kts
30-Apr-19 23:35 33.903400 -116.861020 71 9029ft 126kts
30-Apr-19 23:36 33.912464 -116.820034 71 8434ft 125kts
30-Apr-19 23:37 33.921491 -116.779163 71 7876ft 125kts
30-Apr-19 23:38 33.930470 -116.738433 70 7343ft 124kts
30-Apr-19 23:39 33.939407 -116.697838 69 6819ft 125kts
30-Apr-19 23:40 33.948334 -116.657194 68 6143ft 124kts
30-Apr-19 23:41 33.955785 -116.616362 97 5425ft 132kts
30-Apr-19 23:42 33.939737 -116.576471 116 4800ft 131kts
30-Apr-19 23:43 33.921584 -116.538074 116 4179ft 130kts
30-Apr-19 23:44 33.903285 -116.499588 116 3566ft 132kts
30-Apr-19 23:45 33.885085 -116.461358 115 3020ft 131kts
30-Apr-19 23:46 33.864706 -116.431201 171 2889ft 103kts
30-Apr-19 23:47 33.834644 -116.425466 180 2895ft 117kts
30-Apr-19 23:48 33.801167 -116.421243 179 2898ft 121kts
30-Apr-19 23:49 33.767231 -116.417032 180 2905ft 120kts
30-Apr-19 23:50 33.737712 -116.413352 181 2890ft 95kts
30-Apr-19 23:51 33.731730 -116.426331 305 2852ft 55kts
30-Apr-19 23:52 33.743695 -116.441034 332 2421ft 68kts
30-Apr-19 23:53 33.760217 -116.449858 330 1933ft 62kts
30-Apr-19 23:54 33.775273 -116.458131 325 1523ft 58kts
30-Apr-19 23:55 33.788236 -116.468693 320 1169ft 53kts
30-Apr-19 23:56 33.799429 -116.479790 319 889ft 49kts
30-Apr-19 23:57 33.810075 -116.489903 325 747ft 47kts
30-Apr-19 23:58 33.820457 -116.499340 321 540ft 44kts
30-Apr-19 23:59 33.826780 -116.505154 323 418ft 12kts
01-May-19 00:00 33.827657 -116.508045 130 425ft 23kts

Navigation Log

Ident Type
Flight plan parsing failed, navigation log unavailable